Amity, Maine
Current Conditions -  °F | °C
As of 1:17 PM on Wednesday 28 Jan 2015 (Local Time) from KHUL Reporting Station
Light Snow Light Snow  
Wind Chill: -2°   Ceiling: 2200
Heat Index: 13°   Visibility: 1.5mi
Dew Point:   Wind: 13mph
Humidity: 77%   Direction: 330°NNW
Pressure: 29.84"   Gusts: 21mph
Location:  45.8952°N, 67.8479°W
Report Text: KHUL 281817Z AUTO 33011G18KT 1 1/2SM -SN FEW016 BKN022 OVC032 M11/M14 A2984 RMK AO2 P0000 T11061139
Loading
Personal Weather Stations






























Interactive Weather Map New forecast layout! Learn more

10-Day Weather Forecast

Advertisements
Track Severe Weather on mobile